ADDS METAR Data INFO
IDs: Format: Raw Decoded Include TAF

Data at: 1528 UTC 18 Jun 2018

KRST 181454Z 35007KT 10SM -RA BKN007 OVC025 23/22 A2997 RMK AO2 RAB46 SLP138 P0000 60002 T02330222 53011
KRST 181354Z 36005KT 10SM BKN006 BKN012 OVC021 23/22 A2995 RMK AO2 RAE05B23E41 CIG 005V009 SLP134 P0000 T02330222
KRST 181254Z 00000KT 8SM -RA BKN007 OVC050 23/23 A2993 RMK AO2 SLP124 P0002 T02280228
KRST 181218Z 26004KT 5SM -RA BR OVC006 23/23 A2993 RMK AO2 CIG 002V008 P0001 T02280228
KRST 181154Z 26004KT 5SM -RA BR BKN003 OVC100 23/23 A2993 RMK AO2 RAE10B12 SLP126 P0005 60070 70136 T02280228 10228 20228 51007
KRST 181149Z 26003KT 5SM -RA BR BKN004 OVC100 23/23 A2993 RMK AO2 RAE10B12 P0004
KRST 181122Z 27004KT 5SM -RA BR FEW006 BKN090 OVC110 23/23 A2993 RMK AO2 RAE10B12 P0003 T02280228
KRST 181111Z 27003KT 7SM FEW041 BKN080 OVC100 23/23 A2992 RMK AO2 RAE10 P0003 T02280228
KRST 181103Z 00000KT 2 1/2SM -RA BR FEW007 BKN080 OVC100 23/23 A2992 RMK AO2 P0003 T02280228
KRST 181054Z 25003KT 6SM -RA BR FEW005 BKN060 OVC075 23/23 A2993 RMK AO2 RAB08 SLP124 P0007 T02280228
KRST 181030Z 23006KT 9SM -RA SCT007 SCT042 OVC060 23/23 A2992 RMK AO2 RAB08 P0005 T02280228
KRST 180954Z 28004KT 10SM OVC008 23/23 A2991 RMK AO2 SLP117 T02280228
KRST 180941Z AUTO 29005KT 10SM OVC008 23/23 A2991 RMK AO2 CIG 006V012 T02280228
KRST 180930Z AUTO 29006KT 10SM BKN010 OVC014 23/22 A2990 RMK AO2 CIG 007V012 T02280222
KRST 180919Z AUTO 28006KT 10SM FEW010 BKN015 OVC110 23/23 A2990 RMK AO2 T02280228
KRST 180854Z AUTO 25007KT 10SM FEW080 BKN110 23/22 A2988 RMK AO2 RAE47 SLP107 P0001 60058 T02280222 55000
KRST 180754Z AUTO 21007KT 6SM -RA BR SCT021 BKN030 OVC110 23/22 A2987 RMK AO2 LTG DSNT E TSE29B35 SLP105 P0006 T02280222
KRST 180752Z AUTO 20007KT 6SM RA BR SCT021 BKN030 OVC110 23/22 A2988 RMK AO2 LTG DSNT E TSE29B35 P0006
KRST 180747Z AUTO 20009KT 8SM -TSRA BKN022 BKN032 OVC060 23/22 A2988 RMK AO2 LTG DSNT NE AND E TSE29B35 P0005 T02280222
KRST 180654Z AUTO 19006KT 8SM -TSRA SCT025 BKN036 OVC060 23/22 A2988 RMK AO2 LTG DSNT ALQDS TSB54 SLP107 P0051 T02280222
KRST 180650Z AUTO 21006KT 10SM VCTS -RA SCT023 BKN036 OVC065 23/22 A2988 RMK AO2 LTG DSNT ALQDS P0051
KRST 180633Z AUTO 21004KT 6SM -RA BR SCT015 BKN033 OVC070 23/23 A2988 RMK AO2 LTG DSNT ALQDS P0049 T02280228
KRST 180616Z AUTO 31003KT 3SM VCTS -RA BR FEW015 BKN025 OVC043 23/22 A2987 RMK AO2 LTG DSNT E AND SW P0046 T02280222
KRST 180613Z AUTO 27004KT 1 1/2SM R31/5000VP6000FT VCTS -RA BR BKN018 BKN029 OVC070 23/22 A2988 RMK AO2 LTG DSNT E AND SW AND W P0045 T02280222
KRST 180603Z AUTO 31008KT 3/4SM R31/4500VP6000FT +TSRA BR SCT020 BKN029 OVC070 23/22 A2989 RMK AO2 LTG DSNT NE AND E AND W P0020 T02280222
KRST 180558Z AUTO 23006KT 1 1/2SM R31/6000VP6000FT +TSRA BR SCT023 BKN029 OVC070 23/22 A2989 RMK AO2 LTG DSNT NE AND W P0006 T02280222
KRST 180554Z AUTO 22007KT 5SM -TSRA BR FEW023 BKN042 OVC090 23/23 A2989 RMK AO2 LTG DSNT NE AND E AND W TSB07E35B54 SLP110 P0066 60066 T02280228 10300 20222 403330222 51006
KRST 180545Z AUTO 20004KT 10SM -RA FEW021 BKN031 OVC070 23/23 A2988 RMK AO2 LTG DSNT NE AND E AND W TSB07E35 P0066 T02280228
KRST 180538Z AUTO 24010G16KT 2 1/2SM VCTS -RA BR SCT018 OVC031 23/22 A2989 RMK AO2 LTG DSNT NE AND E AND W TSB07E35 P0066 T02280222
KRST 180535Z AUTO 24008KT 1 1/2SM R31/5500VP6000FT VCTS -RA BR BKN018 OVC033 23/22 A2988 RMK AO2 LTG DSNT NE AND E AND W TSB07E35 P0066 T02280222
KRST 180530Z AUTO 33006KT 1SM R31/5500VP6000FT +TSRA BR BKN018 BKN035 OVC050 23/22 A2988 RMK AO2 LTG DSNT E AND W TSB07 P0050 T02280222
KRST 180526Z AUTO 26006KT 1 1/2SM +TSRA BR SCT020 BKN035 OVC070 22/22 A2989 RMK AO2 VIS 3/4V5 LTG DSNT E TSB07 P0038 T02220222
KRST 180515Z AUTO 28005KT 3/4SM R31/3000VP6000FT +TSRA BR SCT019 BKN039 OVC075 23/22 A2990 RMK AO2 LTG DSNT E TSB07 P0014 T02280217
KRST 180512Z AUTO 27012KT 1 3/4SM R31/5500VP6000FT +TSRA BR BKN031 BKN049 OVC070 23/22 A2990 RMK AO2 LTG DSNT E TSB07 P0002 T02330217
KRST 180507Z AUTO 25007KT 10SM -TSRA SCT042 BKN065 OVC080 24/22 A2989 RMK AO2 LTG DSNT E AND W TSB07 P0000 T02390217
KRST 180454Z AUTO 25007KT 10SM -RA SCT050 BKN060 OVC090 24/21 A2989 RMK AO2 LTG DSNT NE RAE01B35 SLP109 P0000 T02440211
KRST 180354Z AUTO 21007KT 10SM -RA OVC060 25/21 A2988 RMK AO2 LTG DSNT SE RAB45 SLP108 P0000 T02500211
KRST 180254Z 21009KT 10SM SCT060 BKN080 BKN120 27/21 A2987 RMK AO2 LTG DSNT N AND SE SLP104 T02720211 53012
KRST 180154Z 23008KT 10SM BKN090 BKN110 28/21 A2985 RMK AO2 SLP097 T02780211
KRST 180054Z 23013KT 10SM OVC100 29/21 A2985 RMK AO2 PK WND 23030/2358 SLP097 T02890211
KRST 172354Z 22023G31KT 10SM FEW045 SCT060 30/21 A2984 RMK AO2 PK WND 22035/2312 SLP092 T03000206 10333 20300 55001
KRST 172254Z 23023G31KT 10SM FEW050 SCT120 31/22 A2983 RMK AO2 PK WND 22038/2156 LTG DSNT NE SLP088 T03110217
KRST 172229Z 22025G33KT 10SM SCT055 SCT075 31/22 A2983 RMK AO2 PK WND 22038/2156 LTG DSNT NE T03110217
KRST 172214Z 23021G30KT 10SM VCTS FEW060 SCT075 31/21 A2982 RMK AO2 PK WND 22038/2156 T03110211
KRST 172154Z 21021G33KT 10SM FEW060 32/21 A2982 RMK AO2 PK WND 22034/2111 SLP086 T03170211
KRST 172054Z 21019G27KT 10SM SCT060 BKN070 33/22 A2984 RMK AO2 PK WND 21031/2037 SLP091 T03280222 56010
KRST 171954Z 20020G27KT 10SM FEW055 33/22 A2984 RMK AO2 PK WND 18029/1937 SLP094 T03280222
KRST 171854Z 20017G23KT 10SM FEW046 33/23 A2985 RMK AO2 SLP097 T03280228
KRST 171754Z 19015G23KT 10SM FEW045 32/23 A2987 RMK AO2 SLP102 T03170228 10317 20250 58003
KRST 171654Z 21014G21KT 10SM CLR 31/23 A2987 RMK AO2 SLP103 T03060228
KRST 171554Z 21014G22KT 10SM CLR 29/22 A2987 RMK AO2 SLP105 T02890222
KRST 171454Z 21014G22KT 10SM CLR 28/22 A2987 RMK AO2 PK WND 20027/1434 SLP105 T02780217 51002
KRST 171354Z 21015G26KT 10SM CLR 27/22 A2987 RMK AO2 PK WND 20026/1345 SLP105 T02720217
KRST 171254Z 20015G25KT 10SM CLR 26/21 A2987 RMK AO2 SLP105 T02560206
KRST 171154Z 20016KT 10SM FEW085 25/21 A2987 RMK AO2 SLP104 70003 T02500206 10267 20244 53004
KRST 171054Z 19012KT 10SM FEW080 24/21 A2987 RMK AO2 SLP102 T02440206
KRST 170954Z AUTO 20012KT 10SM FEW075 24/21 A2986 RMK AO2 SLP099 T02440206
KRST 170854Z AUTO 19014G22KT 10SM FEW075 25/21 A2986 RMK AO2 SLP099 T02500206 55003
KRST 170754Z AUTO 19013KT 10SM CLR 26/21 A2986 RMK AO2 SLP099 T02560206
KRST 170654Z AUTO 19013G21KT 10SM CLR 26/21 A2985 RMK AO2 SLP097 T02560206
KRST 170554Z AUTO 20012G20KT 10SM BKN120 27/21 A2987 RMK AO2 SLP103 T02670206 10300 20267 403110222 53012
KRST 170454Z AUTO 19016G27KT 10SM CLR 27/21 A2981 RMK AO2 PK WND 18033/0441 SLP084 T02670206
KRST 170354Z AUTO 18017G27KT 10SM CLR 27/21 A2982 RMK AO2 PK WND 18027/0347 SLP090 T02720211